DLH3XA EDDF-ELLX
Flight info
| Callsign | DLH3XA |
|---|---|
| Flight time | 0h 37m |
| Altitude | 16000 |
| Route | SOBRA2L/18 SOBRA Y180 BITBU Z110 BETEX |
| Aircraft | A319/M-SDE2E3FGIJ1LORWXYZ/HB1 |
Departure
| Time | 2026-04-14 10:46 |
|---|---|
| Airport | Frankfurt Main Airport (EDDF) |
Arrival
| Time | 2026-04-14 11:23 |
|---|---|
| Airport | Luxembourg-Findel International Airport (ELLX) |
| Time | Latitude | Longitude | Altitude | Speed | Heading |
|---|---|---|---|---|---|
| 2026-04-14 10:17 | 50.04390 | 8.56168 | 356 ft | 0 kts | 155° |
| 2026-04-14 10:36 | 50.04393 | 8.56166 | 356 ft | 3 kts | 154° |
| 2026-04-14 10:36 | 50.04417 | 8.56148 | 362 ft | 4 kts | 154° |
| 2026-04-14 10:36 | 50.04440 | 8.56135 | 364 ft | 4 kts | 193° |
| 2026-04-14 10:37 | 50.04459 | 8.56153 | 358 ft | 4 kts | 227° |
| 2026-04-14 10:37 | 50.04462 | 8.56158 | 359 ft | 4 kts | 250° |
| 2026-04-14 10:37 | 50.04454 | 8.56120 | 361 ft | 3 kts | 249° |
| 2026-04-14 10:37 | 50.04453 | 8.56116 | 361 ft | 0 kts | 249° |
| 2026-04-14 10:40 | 50.04450 | 8.56106 | 361 ft | 2 kts | 249° |
| 2026-04-14 10:40 | 50.04445 | 8.56083 | 356 ft | 3 kts | 249° |
| 2026-04-14 10:40 | 50.04432 | 8.56050 | 359 ft | 4 kts | 228° |
| 2026-04-14 10:40 | 50.04404 | 8.56030 | 358 ft | 5 kts | 190° |
| 2026-04-14 10:41 | 50.04367 | 8.56040 | 359 ft | 7 kts | 164° |
| 2026-04-14 10:41 | 50.04310 | 8.56069 | 362 ft | 12 kts | 166° |
| 2026-04-14 10:41 | 50.04251 | 8.55986 | 360 ft | 14 kts | 252° |
| 2026-04-14 10:41 | 50.04215 | 8.55840 | 355 ft | 16 kts | 248° |
| 2026-04-14 10:42 | 50.04175 | 8.55674 | 357 ft | 17 kts | 250° |
| 2026-04-14 10:42 | 50.04132 | 8.55489 | 354 ft | 19 kts | 250° |
| 2026-04-14 10:42 | 50.04085 | 8.55295 | 354 ft | 19 kts | 249° |
| 2026-04-14 10:42 | 50.04038 | 8.55099 | 358 ft | 20 kts | 249° |
| 2026-04-14 10:43 | 50.03988 | 8.54891 | 356 ft | 22 kts | 250° |
| 2026-04-14 10:43 | 50.03934 | 8.54659 | 356 ft | 24 kts | 250° |
| 2026-04-14 10:43 | 50.03872 | 8.54407 | 351 ft | 26 kts | 247° |
| 2026-04-14 10:43 | 50.03784 | 8.54159 | 350 ft | 26 kts | 250° |
| 2026-04-14 10:44 | 50.03721 | 8.53891 | 351 ft | 27 kts | 250° |
| 2026-04-14 10:44 | 50.03652 | 8.53608 | 343 ft | 29 kts | 248° |
| 2026-04-14 10:44 | 50.03579 | 8.53311 | 340 ft | 30 kts | 250° |
| 2026-04-14 10:44 | 50.03513 | 8.53037 | 336 ft | 25 kts | 249° |
| 2026-04-14 10:45 | 50.03455 | 8.52805 | 335 ft | 21 kts | 247° |
| 2026-04-14 10:45 | 50.03402 | 8.52612 | 332 ft | 14 kts | 236° |
| 2026-04-14 10:45 | 50.03362 | 8.52592 | 335 ft | 1 kts | 179° |
| 2026-04-14 10:45 | 50.03339 | 8.52593 | 336 ft | 14 kts | 179° |
| 2026-04-14 10:46 | 50.02942 | 8.52600 | 336 ft | 105 kts | 180° |
| 2026-04-14 10:46 | 50.01952 | 8.52606 | 382 ft | 172 kts | 178° |
| 2026-04-14 10:46 | 50.00741 | 8.52620 | 1176 ft | 174 kts | 178° |
| 2026-04-14 10:46 | 49.99521 | 8.52696 | 2074 ft | 177 kts | 177° |
| 2026-04-14 10:47 | 49.98230 | 8.52796 | 2655 ft | 198 kts | 177° |
| 2026-04-14 10:47 | 49.96758 | 8.52896 | 3155 ft | 223 kts | 177° |
| 2026-04-14 10:47 | 49.95133 | 8.53005 | 3893 ft | 239 kts | 176° |
| 2026-04-14 10:47 | 49.93457 | 8.53116 | 4966 ft | 243 kts | 177° |
| 2026-04-14 10:48 | 49.91765 | 8.53225 | 6059 ft | 245 kts | 178° |
| 2026-04-14 10:48 | 49.90054 | 8.53332 | 7100 ft | 248 kts | 179° |
| 2026-04-14 10:48 | 49.88322 | 8.53431 | 8196 ft | 249 kts | 181° |
| 2026-04-14 10:48 | 49.86575 | 8.53058 | 9050 ft | 262 kts | 197° |
| 2026-04-14 10:49 | 49.84793 | 8.52075 | 9769 ft | 279 kts | 201° |
| 2026-04-14 10:49 | 49.82943 | 8.51016 | 10547 ft | 293 kts | 201° |
| 2026-04-14 10:49 | 49.80964 | 8.49882 | 11130 ft | 311 kts | 201° |
| 2026-04-14 10:49 | 49.78925 | 8.48667 | 11975 ft | 318 kts | 206° |
| 2026-04-14 10:50 | 49.77174 | 8.46570 | 12870 ft | 322 kts | 231° |
| 2026-04-14 10:50 | 49.76177 | 8.43482 | 13783 ft | 327 kts | 256° |
| 2026-04-14 10:50 | 49.76155 | 8.39963 | 14635 ft | 333 kts | 280° |
| 2026-04-14 10:50 | 49.76708 | 8.36462 | 15491 ft | 337 kts | 283° |
| 2026-04-14 10:51 | 49.77286 | 8.32946 | 15982 ft | 340 kts | 283° |
| 2026-04-14 10:51 | 49.77871 | 8.29383 | 16145 ft | 341 kts | 283° |
| 2026-04-14 10:51 | 49.78441 | 8.25896 | 16184 ft | 325 kts | 283° |
| 2026-04-14 10:51 | 49.78979 | 8.22584 | 16187 ft | 311 kts | 282° |
| 2026-04-14 10:52 | 49.79497 | 8.19364 | 16191 ft | 307 kts | 282° |
| 2026-04-14 10:52 | 49.80009 | 8.16157 | 16193 ft | 306 kts | 282° |
| 2026-04-14 10:52 | 49.80515 | 8.12966 | 16190 ft | 305 kts | 282° |
| 2026-04-14 10:52 | 49.81019 | 8.09773 | 16189 ft | 305 kts | 282° |
| 2026-04-14 10:53 | 49.81526 | 8.06581 | 16189 ft | 305 kts | 282° |
| 2026-04-14 10:53 | 49.82032 | 8.03397 | 16190 ft | 305 kts | 282° |
| 2026-04-14 10:53 | 49.82539 | 8.00209 | 16191 ft | 305 kts | 282° |
| 2026-04-14 10:53 | 49.83041 | 7.97023 | 16190 ft | 305 kts | 282° |
| 2026-04-14 10:54 | 49.83540 | 7.93835 | 16193 ft | 305 kts | 282° |
| 2026-04-14 10:54 | 49.84040 | 7.90639 | 16194 ft | 305 kts | 282° |
| 2026-04-14 10:54 | 49.84538 | 7.87444 | 16196 ft | 305 kts | 282° |
| 2026-04-14 10:54 | 49.85037 | 7.84249 | 16197 ft | 305 kts | 282° |
| 2026-04-14 10:55 | 49.85537 | 7.81050 | 16198 ft | 305 kts | 282° |
| 2026-04-14 10:55 | 49.86037 | 7.77857 | 16200 ft | 305 kts | 282° |
| 2026-04-14 10:55 | 49.86540 | 7.74658 | 16201 ft | 305 kts | 282° |
| 2026-04-14 10:55 | 49.87046 | 7.71457 | 16205 ft | 306 kts | 282° |
| 2026-04-14 10:56 | 49.87551 | 7.68257 | 16204 ft | 306 kts | 282° |
| 2026-04-14 10:56 | 49.88051 | 7.65056 | 16205 ft | 306 kts | 282° |
| 2026-04-14 10:56 | 49.88550 | 7.61845 | 16204 ft | 306 kts | 282° |
| 2026-04-14 10:56 | 49.89044 | 7.58636 | 16205 ft | 306 kts | 282° |
| 2026-04-14 10:57 | 49.89536 | 7.55422 | 16205 ft | 306 kts | 282° |
| 2026-04-14 10:57 | 49.90026 | 7.52212 | 16206 ft | 306 kts | 282° |
| 2026-04-14 10:57 | 49.90516 | 7.48998 | 16207 ft | 306 kts | 282° |
| 2026-04-14 10:57 | 49.91007 | 7.45789 | 16207 ft | 306 kts | 282° |
| 2026-04-14 10:58 | 49.91500 | 7.42571 | 16208 ft | 306 kts | 282° |
| 2026-04-14 10:58 | 49.91992 | 7.39357 | 16209 ft | 306 kts | 282° |
| 2026-04-14 10:58 | 49.92480 | 7.36142 | 16210 ft | 306 kts | 282° |
| 2026-04-14 10:58 | 49.92966 | 7.32923 | 16212 ft | 306 kts | 282° |
| 2026-04-14 10:59 | 49.93454 | 7.29700 | 16209 ft | 306 kts | 282° |
| 2026-04-14 10:59 | 49.93940 | 7.26485 | 16210 ft | 306 kts | 283° |
| 2026-04-14 10:59 | 49.94426 | 7.23266 | 16209 ft | 306 kts | 284° |
| 2026-04-14 10:59 | 49.94913 | 7.20046 | 16208 ft | 307 kts | 284° |
| 2026-04-14 11:00 | 49.95398 | 7.16822 | 16204 ft | 306 kts | 284° |
| 2026-04-14 11:00 | 49.95879 | 7.13609 | 16206 ft | 306 kts | 284° |
| 2026-04-14 11:00 | 49.96359 | 7.10392 | 16210 ft | 306 kts | 284° |
| 2026-04-14 11:00 | 49.96838 | 7.07177 | 16203 ft | 306 kts | 283° |
| 2026-04-14 11:01 | 49.97157 | 7.05038 | 16202 ft | 306 kts | 283° |
| 2026-04-14 11:01 | 49.97793 | 7.00776 | 16202 ft | 306 kts | 284° |
| 2026-04-14 11:01 | 49.98272 | 6.97562 | 16198 ft | 306 kts | 283° |
| 2026-04-14 11:01 | 49.98752 | 6.94331 | 16197 ft | 307 kts | 284° |
| 2026-04-14 11:02 | 49.99072 | 6.92150 | 16193 ft | 307 kts | 283° |
| 2026-04-14 11:02 | 49.99281 | 6.88850 | 16196 ft | 308 kts | 270° |
| 2026-04-14 11:02 | 49.99182 | 6.85524 | 16196 ft | 308 kts | 268° |
| 2026-04-14 11:02 | 49.99079 | 6.82202 | 16197 ft | 308 kts | 269° |
| 2026-04-14 11:03 | 49.98979 | 6.78867 | 16189 ft | 309 kts | 269° |
| 2026-04-14 11:03 | 49.98881 | 6.75532 | 16189 ft | 309 kts | 269° |
| 2026-04-14 11:03 | 49.98783 | 6.72191 | 16187 ft | 309 kts | 269° |
| 2026-04-14 11:03 | 49.98683 | 6.68847 | 16190 ft | 310 kts | 269° |
| 2026-04-14 11:04 | 49.98585 | 6.65557 | 16191 ft | 310 kts | 269° |
| 2026-04-14 11:04 | 49.98473 | 6.62200 | 16191 ft | 310 kts | 266° |
| 2026-04-14 11:04 | 49.97950 | 6.58904 | 16192 ft | 313 kts | 249° |
| 2026-04-14 11:04 | 49.96850 | 6.56033 | 16175 ft | 315 kts | 232° |
| 2026-04-14 11:05 | 49.95213 | 6.53718 | 16173 ft | 317 kts | 214° |
| 2026-04-14 11:05 | 49.93296 | 6.52085 | 16173 ft | 318 kts | 208° |
| 2026-04-14 11:05 | 49.91338 | 6.50496 | 16177 ft | 318 kts | 208° |
| 2026-04-14 11:05 | 49.89374 | 6.48897 | 16180 ft | 319 kts | 208° |
| 2026-04-14 11:06 | 49.87411 | 6.47295 | 16185 ft | 319 kts | 209° |
| 2026-04-14 11:06 | 49.85413 | 6.45586 | 16172 ft | 337 kts | 214° |
| 2026-04-14 11:06 | 49.83727 | 6.43105 | 15717 ft | 337 kts | 236° |
| 2026-04-14 11:06 | 49.82763 | 6.39824 | 15214 ft | 334 kts | 258° |
| 2026-04-14 11:07 | 49.82610 | 6.36270 | 14756 ft | 330 kts | 278° |
| 2026-04-14 11:07 | 49.83084 | 6.32817 | 14323 ft | 328 kts | 286° |
| 2026-04-14 11:07 | 49.83617 | 6.29390 | 13894 ft | 327 kts | 286° |
| 2026-04-14 11:07 | 49.84143 | 6.25980 | 13426 ft | 324 kts | 285° |
| 2026-04-14 11:08 | 49.84662 | 6.22598 | 12998 ft | 322 kts | 285° |
| 2026-04-14 11:08 | 49.85167 | 6.19234 | 12562 ft | 319 kts | 282° |
| 2026-04-14 11:08 | 49.85170 | 6.15819 | 12142 ft | 319 kts | 259° |
| 2026-04-14 11:08 | 49.84308 | 6.12678 | 11745 ft | 318 kts | 236° |
| 2026-04-14 11:09 | 49.82734 | 6.10315 | 11347 ft | 317 kts | 213° |
| 2026-04-14 11:09 | 49.80797 | 6.08707 | 10907 ft | 315 kts | 208° |
| 2026-04-14 11:09 | 49.78850 | 6.07179 | 10494 ft | 312 kts | 207° |
| 2026-04-14 11:10 | 49.75022 | 6.04282 | 9960 ft | 296 kts | 207° |
| 2026-04-14 11:10 | 49.73205 | 6.02916 | 9681 ft | 289 kts | 207° |
| 2026-04-14 11:10 | 49.71424 | 6.01573 | 9281 ft | 287 kts | 207° |
| 2026-04-14 11:10 | 49.69633 | 6.00216 | 8841 ft | 286 kts | 207° |
| 2026-04-14 11:11 | 49.67851 | 5.98863 | 8389 ft | 284 kts | 207° |
| 2026-04-14 11:11 | 49.66059 | 5.97500 | 7938 ft | 283 kts | 207° |
| 2026-04-14 11:11 | 49.64320 | 5.96182 | 7422 ft | 284 kts | 207° |
| 2026-04-14 11:11 | 49.62528 | 5.94825 | 6920 ft | 285 kts | 207° |
| 2026-04-14 11:12 | 49.60781 | 5.93505 | 6761 ft | 273 kts | 207° |
| 2026-04-14 11:12 | 49.59114 | 5.92247 | 6633 ft | 260 kts | 206° |
| 2026-04-14 11:12 | 49.57630 | 5.90828 | 6595 ft | 243 kts | 225° |
| 2026-04-14 11:12 | 49.56714 | 5.88796 | 6598 ft | 223 kts | 250° |
| 2026-04-14 11:13 | 49.56410 | 5.86547 | 6604 ft | 212 kts | 271° |
| 2026-04-14 11:13 | 49.56660 | 5.84343 | 6604 ft | 209 kts | 293° |
| 2026-04-14 11:13 | 49.57413 | 5.82449 | 6601 ft | 208 kts | 314° |
| 2026-04-14 11:13 | 49.58563 | 5.81118 | 6601 ft | 208 kts | 335° |
| 2026-04-14 11:14 | 49.59946 | 5.80521 | 6604 ft | 208 kts | 356° |
| 2026-04-14 11:14 | 49.61375 | 5.80732 | 6605 ft | 207 kts | 17° |
| 2026-04-14 11:14 | 49.62708 | 5.81558 | 6608 ft | 207 kts | 25° |
| 2026-04-14 11:14 | 49.64006 | 5.82526 | 6602 ft | 207 kts | 27° |
| 2026-04-14 11:15 | 49.65295 | 5.83528 | 6601 ft | 207 kts | 27° |
| 2026-04-14 11:15 | 49.66582 | 5.84532 | 6602 ft | 207 kts | 26° |
| 2026-04-14 11:15 | 49.67870 | 5.85531 | 6603 ft | 207 kts | 26° |
| 2026-04-14 11:15 | 49.69111 | 5.86651 | 6604 ft | 207 kts | 37° |
| 2026-04-14 11:16 | 49.70071 | 5.88288 | 6596 ft | 207 kts | 58° |
| 2026-04-14 11:16 | 49.70586 | 5.90366 | 6605 ft | 209 kts | 79° |
| 2026-04-14 11:16 | 49.70566 | 5.92609 | 6605 ft | 211 kts | 101° |
| 2026-04-14 11:16 | 49.70001 | 5.94702 | 6606 ft | 213 kts | 124° |
| 2026-04-14 11:17 | 49.68940 | 5.96287 | 6434 ft | 214 kts | 151° |
| 2026-04-14 11:17 | 49.67525 | 5.96857 | 6335 ft | 212 kts | 182° |
| 2026-04-14 11:17 | 49.66101 | 5.96318 | 6294 ft | 213 kts | 203° |
| 2026-04-14 11:17 | 49.64721 | 5.95488 | 6245 ft | 213 kts | 202° |
| 2026-04-14 11:18 | 49.63337 | 5.94664 | 6189 ft | 213 kts | 202° |
| 2026-04-14 11:18 | 49.61948 | 5.93839 | 6142 ft | 214 kts | 202° |
| 2026-04-14 11:18 | 49.60561 | 5.93014 | 6091 ft | 213 kts | 202° |
| 2026-04-14 11:18 | 49.59179 | 5.92190 | 6043 ft | 213 kts | 201° |
| 2026-04-14 11:19 | 49.57756 | 5.91597 | 5988 ft | 214 kts | 178° |
| 2026-04-14 11:19 | 49.56372 | 5.92311 | 5944 ft | 212 kts | 139° |
| 2026-04-14 11:19 | 49.55557 | 5.94141 | 5891 ft | 208 kts | 103° |
| 2026-04-14 11:19 | 49.55518 | 5.96328 | 5783 ft | 206 kts | 81° |
| 2026-04-14 11:20 | 49.55581 | 5.98533 | 5569 ft | 206 kts | 87° |
| 2026-04-14 11:20 | 49.55577 | 6.00734 | 5343 ft | 204 kts | 85° |
| 2026-04-14 11:20 | 49.55898 | 6.02832 | 5112 ft | 200 kts | 64° |
| 2026-04-14 11:20 | 49.56515 | 6.04698 | 4823 ft | 196 kts | 59° |
| 2026-04-14 11:21 | 49.57205 | 6.06570 | 4253 ft | 205 kts | 58° |
| 2026-04-14 11:21 | 49.57920 | 6.08484 | 3803 ft | 205 kts | 59° |
| 2026-04-14 11:21 | 49.58624 | 6.10366 | 3294 ft | 201 kts | 58° |
| 2026-04-14 11:21 | 49.59309 | 6.12200 | 2900 ft | 192 kts | 59° |
| 2026-04-14 11:22 | 49.59955 | 6.13932 | 2605 ft | 183 kts | 59° |
| 2026-04-14 11:22 | 49.60567 | 6.15572 | 2241 ft | 171 kts | 59° |
| 2026-04-14 11:22 | 49.61131 | 6.17074 | 1816 ft | 159 kts | 59° |
| 2026-04-14 11:22 | 49.61681 | 6.18555 | 1262 ft | 154 kts | 60° |
| 2026-04-14 11:23 | 49.62154 | 6.19844 | 1205 ft | 118 kts | 59° |
| 2026-04-14 11:23 | 49.62481 | 6.20717 | 1247 ft | 69 kts | 59° |
| 2026-04-14 11:23 | 49.62634 | 6.21115 | 1238 ft | 23 kts | 47° |
| 2026-04-14 11:23 | 49.62773 | 6.21205 | 1231 ft | 23 kts | 29° |
| 2026-04-14 11:24 | 49.62909 | 6.21318 | 1229 ft | 19 kts | 27° |
| 2026-04-14 11:24 | 49.63028 | 6.21414 | 1229 ft | 11 kts | 14° |
| 2026-04-14 11:24 | 49.63058 | 6.21337 | 1232 ft | 7 kts | 287° |
| 2026-04-14 11:24 | 49.63063 | 6.21305 | 1233 ft | 0 kts | 259° |
| 2026-04-14 11:25 | 49.63062 | 6.21291 | 1233 ft | 2 kts | 258° |
| 2026-04-14 11:25 | 49.63056 | 6.21262 | 1233 ft | 2 kts | 249° |
| 2026-04-14 11:25 | 49.63056 | 6.21261 | 1233 ft | 0 kts | 246° |